Terminal Aerodrome Forecast
Issued by NWS Mt. Holly, NJ

Home | Current Version | Previous Version | Text Only | Print | Product List | Glossary On
Versions: 1 2 3 4 5 6 7 8 9 10 11 12 13 14 15 16 17 18 19 20 21 22 23 24
000
FTUS41 KPHI 042320
TAFPHL
TAF
KPHL 042320Z 0500/0606 VRB03KT P6SM SCT040 OVC120
     FM050600 VRB02KT 5SM -RA BR SCT025 BKN040
     FM050900 16005KT 3SM -RA BR OVC015
     FM051200 VRB04KT 3SM -RA BR BKN009 OVC015
     FM051600 28009KT P6SM SCT015 BKN025
     FM051900 31012KT P6SM SCT025=

USA.gov is the U.S. government's official web portal to all federal, state and local government web resources and services.